This is the latest recevied weather packets stored in our database for station/object IU1INZ-13. If no packets are shown the sender has not sent any weather packets the latest 10 day(s).
| Time | Temp. | Humidity | Pressure | Rain* | Wind** | Luminosity | Snow |
|---|---|---|---|---|---|---|---|
| 1777989635 | 13.89° C | 81% | 1013.4 hPa | 0 mm | - | - | - |
| 1777988733 | 13.89° C | 80% | 1013.5 hPa | 0 mm | - | - | - |
| 1777987840 | 14.44° C | 80% | 1013.6 hPa | 0 mm | - | - | - |
| 1777986932 | 13.89° C | 82% | 1013.8 hPa | 0 mm | - | - | - |
| 1777986030 | 13.33° C | 82% | 1013.9 hPa | 0 mm | - | - | - |
| 1777985139 | 13.89° C | 82% | 1013.8 hPa | 0 mm | - | - | - |
| 1777984233 | 13.33° C | 81% | 1013.9 hPa | 0 mm | - | - | - |
| 1777983334 | 13.33° C | 83% | 1013.9 hPa | 0 mm | - | - | - |
| 1777982438 | 12.78° C | 83% | 1014.2 hPa | 0 mm | - | - | - |
| 1777981531 | 13.33° C | 84% | 1014.2 hPa | 0 mm | - | - | - |
| 1777980633 | 12.78° C | 84% | 1014.2 hPa | 0 mm | - | - | - |
| 1777979731 | 12.78° C | 83% | 1014.3 hPa | 0 mm | - | - | - |
| 1777978835 | 12.78° C | 83% | 1014.3 hPa | 0 mm | - | - | - |
| 1777977934 | 12.22° C | 86% | 1014.4 hPa | 0 mm | - | - | - |
| 1777977036 | 12.22° C | 86% | 1014.5 hPa | 0 mm | - | - | - |
| 1777976139 | 11.67° C | 87% | 1014.5 hPa | 0 mm | - | - | - |
| 1777975235 | 11.67° C | 89% | 1014.4 hPa | 0 mm | - | - | - |
| 1777974334 | 11.67° C | 89% | 1014.4 hPa | 0 mm | - | - | - |
| 1777973431 | 11.67° C | 89% | 1014.4 hPa | 0 mm | - | - | - |
| 1777972534 | 11.11° C | 89% | 1014.5 hPa | 0 mm | - | - | - |
| 1777971629 | 11.11° C | 89% | 1014.3 hPa | 0 mm | - | - | - |
| 1777970742 | 11.11° C | 89% | 1014.3 hPa | 0 mm | - | - | - |
| 1777969833 | 11.11° C | 89% | 1014.2 hPa | 0 mm | - | - | - |
| 1777968934 | 11.67° C | 89% | 1014 hPa | 0 mm | - | - | - |
| 1777968030 | 11.11° C | 89% | 1014 hPa | 0 mm | - | - | - |
* Rain latest hour (hover to see other rain measurements)
** Current wind speed in m/s (hover to see current wind gust speed)